Time;durP1;ratioP1;P1;durP2;ratioP2;P2;SDS_P1;SDS_P2;PMS_P1;PMS_P2;Temp;Humidity;BMP_temperature;BMP_pressure;BME280_temperature;BME280_humidity;BME280_pressure;Samples;Min_cycle;Max_cycle;Signal;HPM_P1;HPM_P2
2023/07/29 00:00:44;;;;;;;2.55;1.10;;;18.00;99.90;;;17.53;100.00;100686.75;3997012;29;20566;-74
2023/07/29 00:02:45;;;;;;;4.20;1.13;;;18.00;99.90;;;17.55;100.00;100682.88;3980871;29;20457;-74
2023/07/29 00:04:46;;;;;;;1.67;0.80;;;18.10;99.90;;;17.56;100.00;100687.16;3997115;29;20047;-74
2023/07/29 00:06:47;;;;;;;3.17;0.90;;;18.10;99.90;;;17.58;100.00;100681.63;3992923;29;20015;-74
2023/07/29 00:08:48;;;;;;;3.25;0.93;;;18.10;99.90;;;17.60;100.00;100672.41;3991363;29;20033;-74
2023/07/29 00:10:49;;;;;;;4.18;1.10;;;18.10;99.90;;;17.61;100.00;100679.41;3991289;29;20034;-74
2023/07/29 00:12:50;;;;;;;2.28;0.88;;;18.10;99.90;;;17.63;100.00;100674.66;3991065;29;20591;-74
2023/07/29 00:14:51;;;;;;;2.40;0.80;;;18.10;99.90;;;17.63;100.00;100673.84;3979378;29;20059;-74
2023/07/29 00:16:51;;;;;;;5.47;1.02;;;18.20;99.90;;;17.67;100.00;100678.59;3988091;29;20030;-74
2023/07/29 00:18:52;;;;;;;3.72;1.02;;;18.20;99.90;;;17.67;100.00;100673.25;3980677;29;20027;-74
2023/07/29 00:20:53;;;;;;;2.08;1.17;;;18.20;99.90;;;17.67;100.00;100664.41;3996806;29;20037;-74
2023/07/29 00:22:54;;;;;;;4.18;0.80;;;18.20;99.90;;;17.73;100.00;100655.59;3979992;29;20046;-74
2023/07/29 00:24:57;;;;;;;3.70;1.25;;;18.20;99.90;;;17.71;100.00;100656.84;3991582;29;20038;-74
2023/07/29 00:26:57;;;;;;;5.07;0.93;;;18.20;99.90;;;17.67;100.00;100656.41;3996849;29;20117;-74
2023/07/29 00:28:58;;;;;;;4.95;1.10;;;18.20;99.90;;;17.66;100.00;100655.59;3987142;29;20034;-74
2023/07/29 00:30:59;;;;;;;3.22;1.20;;;18.20;99.90;;;17.65;100.00;100656.59;3994676;29;20495;-74
2023/07/29 00:33:00;;;;;;;2.92;1.20;;;18.20;99.90;;;17.66;100.00;100655.59;3980799;29;20088;-74
2023/07/29 00:35:01;;;;;;;1.67;0.80;;;18.20;99.90;;;17.62;100.00;100658.88;3996693;29;20038;-74
2023/07/29 00:37:02;;;;;;;2.00;0.88;;;18.20;99.90;;;17.56;100.00;100651.69;3980548;29;20435;-74
2023/07/29 00:39:03;;;;;;;4.15;1.10;;;18.10;99.90;;;17.50;100.00;100647.13;3965325;30;20035;-74
2023/07/29 00:41:04;;;;;;;4.00;1.23;;;18.10;99.90;;;17.43;100.00;100649.78;3987496;29;20031;-74
2023/07/29 00:43:05;;;;;;;2.35;1.13;;;18.00;99.90;;;17.38;100.00;100648.75;3980448;29;20031;-74
2023/07/29 00:45:07;;;;;;;4.25;1.30;;;17.90;99.90;;;17.33;100.00;100657.34;3996318;29;20041;-74
2023/07/29 00:47:08;;;;;;;2.15;0.82;;;17.90;99.90;;;17.35;100.00;100647.28;3980207;29;20133;-74
2023/07/29 00:49:09;;;;;;;2.03;0.70;;;17.90;99.90;;;17.39;100.00;100640.53;3980330;29;20082;-74
2023/07/29 00:51:10;;;;;;;3.25;1.00;;;17.90;99.90;;;17.45;100.00;100646.91;3980146;29;20035;-74
2023/07/29 00:53:11;;;;;;;5.32;1.33;;;17.90;99.90;;;17.50;100.00;100647.94;3996504;29;20034;-74
2023/07/29 00:55:12;;;;;;;3.50;1.45;;;18.00;99.90;;;17.54;100.00;100643.88;3980050;29;20084;-74
2023/07/29 00:57:15;;;;;;;2.47;0.85;;;18.00;99.90;;;17.52;100.00;100640.56;3995419;29;20034;-75
2023/07/29 00:59:16;;;;;;;4.28;0.95;;;18.00;99.90;;;17.56;100.00;100635.69;3990162;29;20034;-74
2023/07/29 01:01:17;;;;;;;2.78;1.15;;;18.10;99.90;;;17.59;100.00;100644.06;3979316;29;20100;-74
2023/07/29 01:03:17;;;;;;;2.95;1.00;;;18.10;99.90;;;17.62;100.00;100635.66;3980002;29;20019;-74
2023/07/29 01:05:18;;;;;;;4.43;1.10;;;18.10;99.90;;;17.65;100.00;100635.25;3980277;29;20035;-74
2023/07/29 01:07:33;;;;;;;4.65;0.85;;;18.20;99.90;;;17.68;100.00;100637.53;3996514;29;20030;-74
2023/07/29 01:09:44;;;;;;;;;;;18.20;99.90;;;17.67;100.00;100633.22;3996642;29;20069;-74
2023/07/29 01:12:13;;;;;;;4.28;1.25;;;18.20;99.90;;;17.73;100.00;100630.75;3996359;29;20045;-74
2023/07/29 01:14:25;;;;;;;2.33;1.05;;;18.30;99.90;;;17.74;100.00;100627.06;3990440;29;20121;-74
2023/07/29 01:16:53;;;;;;;6.82;1.13;;;18.30;99.90;;;17.77;100.00;100637.34;3972271;29;20037;-74
2023/07/29 01:18:57;;;;;;;5.57;1.40;;;18.30;99.90;;;17.74;100.00;100619.88;3977556;29;20151;-74
2023/07/29 01:21:03;;;;;;;5.90;1.95;;;18.30;99.90;;;17.75;100.00;100613.50;3961300;29;20050;-74
2023/07/29 01:23:04;;;;;;;2.97;1.33;;;18.30;99.90;;;17.75;100.00;100618.84;3980004;29;20126;-74
2023/07/29 01:25:05;;;;;;;4.15;1.25;;;18.30;99.90;;;17.78;100.00;100626.44;3974397;29;20019;-74
2023/07/29 01:27:06;;;;;;;3.33;0.98;;;18.30;99.90;;;17.78;100.00;100634.44;3989166;29;20038;-74
2023/07/29 01:29:07;;;;;;;3.90;1.55;;;18.30;99.90;;;17.77;100.00;100621.31;3990513;29;20398;-74
2023/07/29 01:31:20;;;;;;;7.38;1.52;;;18.30;99.90;;;17.81;100.00;100619.88;3973059;29;20089;-74
2023/07/29 01:33:29;;;;;;;5.10;1.75;;;18.30;99.90;;;17.78;100.00;100615.78;3972221;29;20027;-74
2023/07/29 01:35:44;;;;;;;3.17;1.50;;;18.30;99.90;;;17.82;100.00;100630.34;3986968;29;20042;-74
2023/07/29 01:37:51;;;;;;;4.53;1.50;;;18.40;99.90;;;17.81;100.00;100623.38;3975480;29;20084;-74
2023/07/29 01:39:56;;;;;;;4.03;1.23;;;18.40;99.90;;;17.81;100.00;100627.88;3973711;29;20105;-74
2023/07/29 01:41:58;;;;;;;6.40;1.75;;;18.40;99.90;;;17.85;100.00;100629.13;3973683;29;20051;-74
2023/07/29 01:43:59;;;;;;;3.50;1.33;;;18.40;99.90;;;17.88;100.00;100626.88;3971786;29;20039;-74
2023/07/29 01:46:03;;;;;;;6.88;1.58;;;18.40;99.90;;;17.85;100.00;100619.28;3969619;29;20131;-74
2023/07/29 01:48:07;;;;;;;5.55;1.00;;;18.40;99.90;;;17.89;100.00;100614.34;3971681;29;20022;-74
2023/07/29 01:50:09;;;;;;;3.47;1.05;;;18.40;99.90;;;17.91;100.00;100623.78;3974365;29;20034;-74
2023/07/29 01:52:10;;;;;;;3.22;0.98;;;18.40;99.90;;;17.91;100.00;100617.63;3989916;29;20121;-74
2023/07/29 01:54:11;;;;;;;4.65;1.52;;;18.40;99.90;;;17.91;100.00;100626.44;3987991;29;20026;-74
2023/07/29 01:56:11;;;;;;;6.20;1.58;;;18.50;99.90;;;17.89;100.00;100619.69;3990408;29;20483;-74
2023/07/29 01:58:14;;;;;;;4.00;1.15;;;18.40;99.90;;;17.89;100.00;100623.16;3992347;29;20487;-74
2023/07/29 02:00:15;;;;;;;3.30;1.45;;;18.40;99.90;;;17.91;100.00;100617.63;3971439;29;20145;-74
2023/07/29 02:02:16;;;;;;;4.38;1.83;;;18.50;99.90;;;17.94;100.00;100623.38;3969109;29;20027;-74
2023/07/29 02:04:17;;;;;;;6.43;1.17;;;18.50;99.90;;;17.95;100.00;100629.53;3991347;29;20078;-74
2023/07/29 02:06:18;;;;;;;4.40;1.60;;;18.50;99.90;;;17.97;100.00;100630.13;3972094;29;20020;-74
2023/07/29 02:08:19;;;;;;;3.65;1.35;;;18.50;99.90;;;18.00;100.00;100629.72;3991408;29;20056;-74
2023/07/29 02:10:20;;;;;;;8.18;1.48;;;18.50;99.90;;;18.01;100.00;100618.03;3988501;29;20038;-74
2023/07/29 02:12:21;;;;;;;8.55;2.65;;;18.50;99.90;;;18.02;100.00;100617.00;3972297;29;20035;-74
2023/07/29 02:14:21;;;;;;;5.47;1.92;;;18.50;99.90;;;18.03;100.00;100610.63;3989725;29;20033;-74
2023/07/29 02:16:23;;;;;;;6.90;1.60;;;18.50;99.90;;;18.00;100.00;100608.38;3991773;29;20456;-74
2023/07/29 02:18:24;;;;;;;3.08;1.00;;;18.60;99.90;;;18.03;100.00;100613.28;3994627;29;20488;-74
2023/07/29 02:20:25;;;;;;;3.08;1.52;;;18.60;99.90;;;18.07;100.00;100603.84;3974499;29;20043;-74
2023/07/29 02:22:25;;;;;;;5.78;1.88;;;18.60;99.90;;;18.11;100.00;100602.41;3975974;29;20074;-74
2023/07/29 02:24:26;;;;;;;4.65;2.25;;;18.60;99.90;;;18.10;100.00;100600.75;3973455;29;20035;-74
2023/07/29 02:26:27;;;;;;;3.97;1.48;;;18.60;99.90;;;18.08;100.00;100597.47;3971541;29;20035;-74
2023/07/29 02:28:28;;;;;;;3.45;1.55;;;18.60;99.90;;;18.09;100.00;100607.97;3993929;29;20042;-74
2023/07/29 02:30:29;;;;;;;4.90;2.28;;;18.60;99.90;;;18.08;100.00;100597.47;3990669;29;20023;-74
2023/07/29 02:32:30;;;;;;;4.55;1.30;;;18.60;99.90;;;18.08;100.00;100597.47;3991329;29;20030;-74
2023/07/29 02:34:31;;;;;;;5.22;1.40;;;18.60;99.90;;;18.08;100.00;100592.97;3994254;29;20037;-74
2023/07/29 02:36:32;;;;;;;4.93;1.30;;;18.60;99.90;;;18.12;100.00;100598.72;3976877;29;20106;-74
2023/07/29 02:38:32;;;;;;;4.20;1.70;;;18.60;99.90;;;18.10;100.00;100595.41;3991670;29;20034;-74
2023/07/29 02:40:33;;;;;;;7.35;2.28;;;18.60;99.90;;;18.10;100.00;100600.75;3975603;29;20031;-74
2023/07/29 02:42:34;;;;;;;3.20;1.55;;;18.60;99.90;;;18.11;100.00;100603.22;3959650;30;20022;-74
2023/07/29 02:44:35;;;;;;;6.20;1.88;;;18.70;99.90;;;18.08;100.00;100592.13;3994071;29;20042;-74
2023/07/29 02:46:36;;;;;;;7.15;1.80;;;18.60;99.90;;;18.12;100.00;100593.38;3972821;29;20023;-74
2023/07/29 02:48:37;;;;;;;3.72;1.20;;;18.70;99.90;;;18.11;100.00;100587.19;3993154;29;20092;-74
2023/07/29 02:50:37;;;;;;;6.90;1.60;;;18.60;99.90;;;18.11;100.00;100589.88;3966526;30;20035;-74
2023/07/29 02:52:39;;;;;;;4.18;1.65;;;18.60;99.90;;;18.11;100.00;100587.19;3994917;29;20430;-74
2023/07/29 02:54:40;;;;;;;4.53;1.65;;;18.70;99.90;;;18.14;100.00;100586.78;3993562;29;20038;-74
2023/07/29 02:56:40;;;;;;;3.60;1.60;;;18.70;99.90;;;18.15;100.00;100587.59;3991245;29;20393;-74
2023/07/29 02:58:41;;;;;;;9.07;2.65;;;18.70;99.90;;;18.16;100.00;100594.56;3993803;29;20443;-74
2023/07/29 03:00:43;;;;;;;6.25;1.75;;;18.70;99.90;;;18.17;100.00;100591.72;3988047;29;20038;-74
2023/07/29 03:02:44;;;;;;;5.45;1.92;;;18.70;99.90;;;18.18;100.00;100592.53;3990553;29;20040;-74
2023/07/29 03:04:45;;;;;;;5.75;2.03;;;18.70;99.90;;;18.17;100.00;100590.88;3993483;29;20027;-74
2023/07/29 03:06:48;;;;;;;5.60;1.35;;;18.70;99.90;;;18.18;100.00;100588.03;3977176;29;20038;-74
2023/07/29 03:08:49;;;;;;;3.10;1.10;;;18.70;99.90;;;18.18;100.00;100584.53;3990347;29;20079;-74
2023/07/29 03:10:49;;;;;;;8.02;2.15;;;18.70;99.90;;;18.17;100.00;100582.88;3990648;29;20030;-74
2023/07/29 03:12:50;;;;;;;2.78;1.60;;;18.70;99.90;;;18.18;100.00;100579.19;3960811;30;20396;-75
2023/07/29 03:14:51;;;;;;;5.60;1.92;;;18.70;99.90;;;18.16;100.00;100573.22;3993347;29;20104;-74
2023/07/29 03:16:52;;;;;;;3.13;1.27;;;18.70;99.90;;;18.16;100.00;100574.03;3977492;29;20034;-74
2023/07/29 03:18:53;;;;;;;3.95;1.30;;;18.70;99.90;;;18.18;100.00;100577.34;3974454;29;20035;-74
2023/07/29 03:20:56;;;;;;;4.70;1.40;;;18.70;99.90;;;18.16;100.00;100573.22;3992850;29;20031;-74
2023/07/29 03:22:56;;;;;;;4.68;1.48;;;18.70;99.90;;;18.11;100.00;100570.34;3993330;29;20087;-74
2023/07/29 03:24:57;;;;;;;13.70;2.25;;;18.60;99.90;;;18.02;100.00;100555.59;3976557;29;20023;-74
2023/07/29 03:26:58;;;;;;;7.57;1.67;;;18.60;99.90;;;18.00;100.00;100565.66;3974827;29;20039;-74
2023/07/29 03:28:59;;;;;;;4.18;1.10;;;18.50;99.90;;;17.97;100.00;100563.41;3992301;29;20019;-74
2023/07/29 03:31:00;;;;;;;6.90;1.23;;;18.50;99.90;;;17.96;100.00;100567.09;3972233;29;20030;-74
2023/07/29 03:33:01;;;;;;;4.90;1.40;;;18.50;99.90;;;17.96;100.00;100567.09;3991410;29;20030;-74
2023/07/29 03:35:02;;;;;;;4.68;1.15;;;18.50;99.90;;;17.97;100.00;100566.09;3976375;29;20031;-74
2023/07/29 03:37:03;;;;;;;3.40;1.60;;;18.50;99.90;;;17.99;100.00;100564.84;3990623;29;20029;-74
2023/07/29 03:39:04;;;;;;;5.03;1.63;;;18.50;99.90;;;18.02;100.00;100566.28;3992176;29;20031;-74
2023/07/29 03:41:08;;;;;;;3.92;1.42;;;18.50;99.90;;;18.05;100.00;100568.53;3972539;29;20034;-74
2023/07/29 03:43:09;;;;;;;3.53;1.60;;;18.60;99.90;;;18.06;100.00;100568.34;3990226;29;20022;-74
2023/07/29 03:45:10;;;;;;;3.67;1.55;;;18.60;99.90;;;18.10;100.00;100582.06;3976770;29;20088;-74
2023/07/29 03:47:11;;;;;;;4.20;2.00;;;18.60;99.90;;;18.11;100.00;100579.19;3992313;29;20454;-74
2023/07/29 03:49:12;;;;;;;3.15;1.60;;;18.60;99.90;;;18.13;100.00;100581.63;3989606;29;20026;-74
2023/07/29 03:51:13;;;;;;;2.40;1.30;;;18.60;99.90;;;18.13;100.00;100576.28;3992982;29;20072;-74
2023/07/29 03:53:13;;;;;;;8.38;2.45;;;18.60;99.90;;;18.14;100.00;100577.94;3991238;29;20027;-74
2023/07/29 03:55:14;;;;;;;7.13;1.80;;;18.70;99.90;;;18.11;100.00;100573.03;3992993;29;20022;-74
2023/07/29 03:57:15;;;;;;;6.10;1.55;;;18.70;99.90;;;18.12;100.00;100574.69;3993172;29;20447;-74
2023/07/29 03:59:17;;;;;;;10.55;2.53;;;18.70;99.90;;;18.11;100.00;100567.69;3976937;29;20039;-74
2023/07/29 04:01:18;;;;;;;4.20;1.35;;;18.70;99.90;;;18.12;100.00;100578.19;3971431;29;20066;-74
2023/07/29 04:03:19;;;;;;;4.18;1.70;;;18.70;99.90;;;18.13;100.00;100581.63;3970876;29;20024;-74
2023/07/29 04:05:20;;;;;;;4.20;1.80;;;18.70;99.90;;;18.08;100.00;100574.28;3992488;29;20514;-74
2023/07/29 04:07:21;;;;;;;6.63;1.38;;;18.70;99.90;;;18.10;100.00;100577.53;3974025;29;20029;-74
2023/07/29 04:09:23;;;;;;;3.67;1.60;;;18.60;99.90;;;18.10;100.00;100584.72;3990702;29;20034;-74
2023/07/29 04:11:24;;;;;;;9.10;2.28;;;18.60;99.90;;;18.08;100.00;100573.44;3958804;30;20068;-75
2023/07/29 04:13:25;;;;;;;3.63;1.50;;;18.60;99.90;;;18.08;100.00;100568.94;3995551;29;20038;-74
2023/07/29 04:15:25;;;;;;;5.75;2.20;;;18.60;99.90;;;18.07;100.00;100579.84;3991245;29;20038;-74
2023/07/29 04:17:26;;;;;;;5.63;2.22;;;18.60;99.90;;;18.05;100.00;100577.34;3989992;29;20027;-74
2023/07/29 04:19:27;;;;;;;5.18;1.70;;;18.60;99.90;;;18.04;100.00;100581.03;3976766;29;20436;-74
2023/07/29 04:21:28;;;;;;;7.38;1.60;;;18.50;99.90;;;17.99;100.00;100572.03;3991763;29;20092;-74
2023/07/29 04:23:29;;;;;;;5.05;1.50;;;18.50;99.90;;;17.97;100.00;100566.09;3992607;29;20103;-74
2023/07/29 04:25:29;;;;;;;4.18;1.38;;;18.50;99.90;;;17.96;100.00;100573.25;3990268;29;20088;-74
2023/07/29 04:27:31;;;;;;;8.15;2.50;;;18.50;99.90;;;17.93;100.00;100564.84;3991461;29;20039;-74
2023/07/29 04:29:32;;;;;;;4.47;1.80;;;18.50;99.90;;;17.94;100.00;100569.16;3976434;29;20031;-74
2023/07/29 04:31:32;;;;;;;6.70;1.60;;;18.50;99.90;;;17.93;100.00;100572.84;3991580;29;20113;-74
2023/07/29 04:33:33;;;;;;;4.90;2.08;;;18.50;99.90;;;17.98;100.00;100576.53;3991858;29;20030;-74
2023/07/29 04:35:34;;;;;;;5.60;1.70;;;18.50;99.90;;;17.98;100.00;100575.75;3989833;29;20090;-74
2023/07/29 04:37:35;;;;;;;6.63;1.70;;;18.50;99.90;;;17.99;100.00;100577.38;3992579;29;20109;-74
2023/07/29 04:39:36;;;;;;;4.20;1.58;;;18.50;99.90;;;17.99;100.00;100580.84;3992635;29;20039;-74
2023/07/29 04:41:37;;;;;;;6.35;1.80;;;18.50;99.90;;;18.00;100.00;100581.69;3987846;29;20047;-74
2023/07/29 04:43:37;;;;;;;6.25;2.25;;;18.50;99.90;;;17.98;100.00;100581.09;3991754;29;20037;-74
2023/07/29 04:45:43;;;;;;;4.15;1.38;;;18.60;99.90;;;18.02;100.00;100584.97;3978072;29;20057;-74
2023/07/29 04:47:44;;;;;;;5.28;1.60;;;18.50;99.90;;;18.00;100.00;100571.84;3972485;29;20031;-74
2023/07/29 04:49:45;;;;;;;3.80;2.00;;;18.60;99.90;;;18.00;100.00;100584.34;3977860;29;20031;-74
2023/07/29 04:51:46;;;;;;;5.25;1.95;;;18.50;99.90;;;18.03;100.00;100583.94;3974218;29;20069;-74
2023/07/29 04:53:47;;;;;;;7.05;1.90;;;18.60;99.90;;;18.05;100.00;100581.88;3986540;29;20039;-74
2023/07/29 04:55:48;;;;;;;6.47;1.70;;;18.60;99.90;;;18.07;100.00;100582.50;3991324;29;20406;-74
2023/07/29 04:57:49;;;;;;;5.10;1.60;;;18.60;99.90;;;18.06;100.00;100576.34;3992083;29;20033;-74
2023/07/29 04:59:49;;;;;;;3.97;1.80;;;18.60;99.90;;;18.09;100.00;100581.25;3969603;29;20031;-74
2023/07/29 05:01:50;;;;;;;3.25;1.20;;;18.60;99.90;;;18.12;100.00;100593.38;3973499;29;20045;-74
2023/07/29 05:03:51;;;;;;;7.13;1.90;;;18.70;99.90;;;18.15;100.00;100587.59;3987259;29;20030;-74
2023/07/29 05:05:54;;;;;;;4.82;1.40;;;18.70;99.90;;;18.15;100.00;100584.94;3988444;29;20038;-74
2023/07/29 05:07:55;;;;;;;10.57;1.80;;;18.70;99.90;;;18.17;100.00;100588.22;3974764;29;20034;-74
2023/07/29 05:09:56;;;;;;;5.75;1.90;;;18.70;99.90;;;18.19;100.00;100586.13;3990666;29;20027;-74
2023/07/29 05:11:57;;;;;;;6.57;1.70;;;18.70;99.90;;;18.20;100.00;100593.13;3989542;29;20030;-74
2023/07/29 05:13:58;;;;;;;5.38;1.40;;;18.70;99.90;;;18.21;100.00;100595.63;3977918;29;20039;-74
2023/07/29 05:15:58;;;;;;;5.55;1.70;;;18.70;99.90;;;18.24;100.00;100591.69;3989578;29;20034;-74
2023/07/29 05:17:59;;;;;;;6.13;1.88;;;18.70;99.90;;;18.25;100.00;100598.66;3986492;29;20039;-74
2023/07/29 05:20:00;;;;;;;3.38;1.50;;;18.80;99.90;;;18.20;100.00;100590.47;3976012;29;20039;-74
2023/07/29 05:22:01;;;;;;;4.03;1.60;;;18.80;99.90;;;18.24;100.00;100597.03;3991661;29;20085;-74
2023/07/29 05:24:02;;;;;;;8.32;2.28;;;18.80;99.90;;;18.24;100.00;100603.19;3989373;29;20051;-75
2023/07/29 05:26:03;;;;;;;5.28;1.50;;;18.80;99.90;;;18.23;100.00;100596.22;3990313;29;20041;-74
2023/07/29 05:28:04;;;;;;;5.00;1.48;;;18.80;99.90;;;18.20;100.00;100604.63;3977048;29;20399;-74
2023/07/29 05:30:06;;;;;;;8.70;2.85;;;18.70;99.90;;;18.19;100.00;100599.50;3986267;29;20109;-74
2023/07/29 05:32:07;;;;;;;5.20;1.80;;;18.70;99.90;;;18.18;100.00;100608.56;3973296;29;20042;-74
2023/07/29 05:34:08;;;;;;;5.15;2.03;;;18.70;99.90;;;18.12;100.00;100601.38;3975688;29;20035;-74
2023/07/29 05:36:09;;;;;;;4.13;2.08;;;18.70;99.90;;;18.11;100.00;100605.06;3978060;29;20470;-74
2023/07/29 05:38:10;;;;;;;3.45;1.60;;;18.70;99.90;;;18.05;100.00;100593.38;3986824;29;20031;-74
2023/07/29 05:40:11;;;;;;;3.60;1.30;;;18.70;99.90;;;18.12;100.00;100602.19;3976371;29;20038;-74
2023/07/29 05:42:12;;;;;;;4.50;1.02;;;18.70;99.90;;;18.05;100.00;100597.88;3974869;29;20499;-74
2023/07/29 05:44:13;;;;;;;2.25;1.30;;;18.60;99.90;;;18.03;100.00;100600.78;3991715;29;20038;-74
2023/07/29 05:46:14;;;;;;;4.65;1.67;;;18.60;99.90;;;18.01;100.00;100610.03;3989127;29;20026;-74
2023/07/29 05:48:15;;;;;;;1.83;1.40;;;18.50;99.90;;;17.98;100.00;100608.56;3988662;29;20079;-74
2023/07/29 05:50:16;;;;;;;2.80;1.33;;;18.50;99.90;;;17.94;100.00;100606.53;3977731;29;20027;-74
2023/07/29 05:52:17;;;;;;;2.38;1.17;;;18.40;99.90;;;17.87;100.00;100600.38;3991699;29;20037;-74
2023/07/29 05:54:18;;;;;;;6.22;1.92;;;18.40;99.90;;;17.94;100.00;100611.88;3975258;29;20030;-74
2023/07/29 05:56:19;;;;;;;3.03;1.30;;;18.40;99.90;;;18.00;100.00;100605.72;3988361;29;20457;-74
2023/07/29 05:58:20;;;;;;;2.35;1.42;;;18.50;99.90;;;18.08;100.00;100610.81;3988279;29;20034;-74
2023/07/29 06:00:21;;;;;;;2.10;1.50;;;18.60;99.90;;;18.18;100.00;100608.56;3978262;29;20415;-74
2023/07/29 06:02:22;;;;;;;5.45;1.90;;;18.60;99.90;;;18.23;100.00;100614.06;3990654;29;20051;-74
2023/07/29 06:04:23;;;;;;;2.28;1.60;;;18.70;99.90;;;18.34;100.00;100607.28;3989499;29;20484;-74
2023/07/29 06:06:24;;;;;;;3.30;1.63;;;18.80;99.90;;;18.40;100.00;100604.56;3989873;29;20033;-74
2023/07/29 06:08:28;;;;;;;4.15;1.42;;;18.90;99.90;;;18.43;100.00;100620.19;3975334;29;20073;-74
2023/07/29 06:10:28;;;;;;;3.05;1.45;;;18.90;99.90;;;18.43;100.00;100619.38;3989924;29;20027;-74
2023/07/29 06:12:29;;;;;;;3.30;1.30;;;18.90;99.90;;;18.44;100.00;100611.16;3990671;29;20023;-74
2023/07/29 06:14:30;;;;;;;3.40;1.52;;;19.00;99.90;;;18.48;100.00;100614.22;3984868;29;20039;-74
2023/07/29 06:16:31;;;;;;;4.75;1.73;;;19.00;99.90;;;18.55;100.00;100615.03;3987594;29;20105;-74
2023/07/29 06:18:32;;;;;;;4.90;1.90;;;19.00;99.90;;;18.71;100.00;100617.25;3979443;29;20089;-74
2023/07/29 06:20:33;;;;;;;4.85;1.20;;;19.10;99.90;;;18.88;100.00;100614.91;3995542;29;20034;-74
2023/07/29 06:22:34;;;;;;;4.80;1.52;;;19.20;99.90;;;18.91;100.00;100615.31;3978859;29;20506;-74
2023/07/29 06:24:34;;;;;;;3.15;1.58;;;19.30;99.90;;;18.83;100.00;100612.06;3995464;29;20027;-74
2023/07/29 06:26:35;;;;;;;2.75;1.40;;;19.20;99.90;;;18.71;100.00;100615.41;3995594;29;20039;-74
2023/07/29 06:28:36;;;;;;;3.80;1.55;;;19.20;99.90;;;18.66;100.00;100612.56;3964262;30;20528;-74
2023/07/29 06:30:37;;;;;;;3.15;1.55;;;19.20;99.90;;;18.59;100.00;100616.25;3993890;29;20038;-74
2023/07/29 06:32:38;;;;;;;3.67;1.83;;;19.10;99.90;;;18.52;100.00;100626.13;3995355;29;20042;-74
2023/07/29 06:34:39;;;;;;;3.30;1.30;;;19.10;99.90;;;18.48;100.00;100625.72;3979092;29;20100;-74
2023/07/29 06:36:40;;;;;;;6.72;1.60;;;19.10;99.90;;;18.50;100.00;100626.38;3995519;29;20046;-74
2023/07/29 06:38:41;;;;;;;3.58;1.40;;;19.00;99.90;;;18.55;100.00;100625.72;3978443;29;20038;-74
2023/07/29 06:40:42;;;;;;;3.13;1.38;;;19.10;99.90;;;18.65;100.00;100629.59;3977196;29;20039;-74
2023/07/29 06:42:43;;;;;;;6.05;2.47;;;19.10;99.90;;;18.78;100.00;100623.41;3968145;29;20081;-74
2023/07/29 06:44:45;;;;;;;3.83;1.77;;;19.20;99.90;;;18.92;100.00;100632.16;3987105;29;20031;-74
2023/07/29 06:46:46;;;;;;;2.40;1.58;;;19.30;99.90;;;19.08;100.00;100631.69;3974582;29;20022;-74
2023/07/29 06:48:47;;;;;;;4.78;1.67;;;19.40;99.90;;;19.16;100.00;100648.28;3979218;29;20061;-74
2023/07/29 06:50:50;;;;;;;4.90;1.63;;;19.50;99.90;;;19.25;100.00;100639.00;3995302;29;20023;-74
2023/07/29 06:52:51;;;;;;;4.10;1.42;;;19.60;99.90;;;19.41;100.00;100642.22;3979456;29;20111;-74
2023/07/29 06:54:52;;;;;;;2.50;1.20;;;19.80;99.90;;;19.59;100.00;100637.75;3995260;29;20035;-74
2023/07/29 06:56:53;;;;;;;3.80;1.48;;;19.90;99.90;;;19.74;100.00;100638.25;3978922;29;20034;-74
2023/07/29 06:58:53;;;;;;;2.55;1.40;;;20.00;99.90;;;19.79;100.00;100646.47;3979153;29;20528;-74
2023/07/29 07:00:54;;;;;;;4.93;1.70;;;20.20;99.90;;;19.65;100.00;100647.56;3997515;29;20038;-74
2023/07/29 07:02:55;;;;;;;4.63;1.85;;;20.20;99.90;;;19.67;100.00;100645.53;3997776;29;20026;-74
2023/07/29 07:04:56;;;;;;;3.30;1.40;;;20.20;99.90;;;19.90;100.00;100652.94;3997049;29;20067;-74
2023/07/29 07:06:57;;;;;;;3.60;1.70;;;20.30;99.90;;;20.04;100.00;100656.34;3974187;29;20080;-74
2023/07/29 07:08:57;;;;;;;6.05;1.70;;;20.40;99.90;;;19.93;100.00;100655.19;3997757;29;20046;-74
2023/07/29 07:10:58;;;;;;;3.75;1.27;;;20.40;99.90;;;20.02;100.00;100653.06;3998100;29;20038;-74
2023/07/29 07:12:59;;;;;;;4.55;1.70;;;20.50;99.90;;;20.25;100.00;100650.59;3997784;29;20035;-74
2023/07/29 07:15:01;;;;;;;4.93;1.63;;;20.60;99.90;;;20.40;100.00;100661.78;3997587;29;20029;-74
2023/07/29 07:17:02;;;;;;;3.97;1.55;;;20.70;99.90;;;20.50;100.00;100659.41;3969210;29;20031;-74
2023/07/29 07:19:03;;;;;;;3.80;1.67;;;20.90;99.90;;;20.63;100.00;100653.91;3969267;29;20534;-74
2023/07/29 07:21:04;;;;;;;4.00;1.50;;;21.00;99.90;;;20.77;100.00;100654.56;3997654;29;20027;-74
2023/07/29 07:23:11;;;;;;;2.90;1.20;;;21.10;99.90;;;20.87;100.00;100663.75;3981421;29;20501;-74
2023/07/29 07:25:12;;;;;;;4.90;1.98;;;21.20;99.90;;;20.73;100.00;100658.72;3981564;29;20071;-74
2023/07/29 07:27:12;;;;;;;3.88;1.70;;;21.20;99.90;;;20.57;100.00;100664.72;3988566;29;20022;-74
2023/07/29 07:29:13;;;;;;;1.70;1.20;;;21.10;99.90;;;20.42;100.00;100668.56;3990517;29;20412;-74
2023/07/29 07:31:16;;;;;;;2.08;1.27;;;20.90;99.90;;;20.19;100.00;100671.00;3984378;29;20030;-74
2023/07/29 07:33:16;;;;;;;3.03;1.13;;;20.70;99.90;;;20.23;100.00;100668.72;3981548;29;20026;-74
2023/07/29 07:35:18;;;;;;;6.10;1.65;;;20.70;99.90;;;20.33;100.00;100674.44;3973016;29;20038;-74
2023/07/29 07:37:19;;;;;;;1.70;0.93;;;20.80;99.90;;;20.49;100.00;100673.06;3973395;29;20024;-74
2023/07/29 07:39:20;;;;;;;5.30;1.85;;;20.80;99.90;;;20.82;100.00;100685.03;3991021;29;20037;-74
2023/07/29 07:41:21;;;;;;;3.65;1.23;;;21.00;99.90;;;20.94;100.00;100679.72;3981387;29;20035;-74
2023/07/29 07:43:23;;;;;;;3.85;1.25;;;21.20;99.90;;;21.13;100.00;100689.44;3997407;29;20060;-74
2023/07/29 07:45:23;;;;;;;2.72;1.25;;;21.40;99.90;;;21.24;100.00;100693.19;3981116;29;20023;-74
2023/07/29 07:47:25;;;;;;;2.60;1.20;;;21.60;99.90;;;21.23;100.00;100684.34;3997318;29;20061;-74
2023/07/29 07:49:26;;;;;;;2.97;1.10;;;21.70;99.90;;;21.25;100.00;100682.25;3997346;29;20042;-74
2023/07/29 07:51:26;;;;;;;4.43;1.48;;;21.70;99.90;;;21.01;100.00;100685.00;3981059;29;20023;-74
2023/07/29 07:53:27;;;;;;;3.00;1.08;;;21.60;99.90;;;20.92;100.00;100682.66;3993835;29;20038;-75
2023/07/29 07:55:28;;;;;;;3.85;1.60;;;21.50;99.90;;;21.03;100.00;100693.66;3980869;29;20407;-74
2023/07/29 07:57:29;;;;;;;3.63;1.40;;;21.50;99.90;;;21.11;100.00;100688.84;3982971;29;20035;-74
2023/07/29 07:59:30;;;;;;;5.28;1.45;;;21.50;99.90;;;20.89;100.00;100690.31;3996073;29;20022;-74
2023/07/29 08:01:40;;;;;;;3.40;1.42;;;21.40;99.90;;;20.90;100.00;100684.75;3996931;29;20038;-74
2023/07/29 08:03:40;;;;;;;5.13;1.20;;;21.30;99.90;;;20.79;100.00;100685.47;3981243;29;20039;-74
2023/07/29 08:05:41;;;;;;;3.90;1.30;;;21.20;99.90;;;20.73;100.00;100686.38;3981088;29;20027;-74
2023/07/29 08:07:42;;;;;;;4.43;1.95;;;21.10;99.90;;;20.78;100.00;100686.53;3997416;29;20038;-74
2023/07/29 08:09:44;;;;;;;5.85;1.83;;;21.10;99.90;;;20.72;100.00;100695.47;3991835;29;20030;-74
2023/07/29 08:11:45;;;;;;;3.15;1.80;;;21.10;99.90;;;20.48;100.00;100692.84;3996691;29;20038;-74
2023/07/29 08:13:46;;;;;;;5.07;2.00;;;21.10;99.90;;;20.36;100.00;100692.75;3991036;29;20031;-74
2023/07/29 08:15:52;;;;;;;4.80;1.20;;;20.90;99.90;;;20.19;100.00;100686.28;3992936;29;20035;-74
2023/07/29 08:17:53;;;;;;;4.38;2.15;;;20.80;99.90;;;19.88;100.00;100679.13;3970737;29;20035;-75
2023/07/29 08:19:54;;;;;;;1.90;1.30;;;20.60;99.90;;;19.91;100.00;100691.25;3997119;29;20089;-74